Latest Coastal Weather Observations for Weipa

IDQ60701

Issued at 12:55 pm EST Friday 18 April 2014 (issued every 10 minutes, with the page automatically refreshed every 10 minutes)

About coastal observations | Map of coastal stations | Coastal observations for QLD | Marine services | Other Formats
Station Details ID: 027045 Name: WEIPA AERO Lat: -12.68 Lon: 141.92 Height: 17.96 m
Data from the previous 72 hours. | See also: Recent months at Weipa
Date/Time
EST
Temp

°C
Wind Pressure Rain
since 9am
mm
Weather Cloud Vis
km
Sea
Height
m
Swell
Dir
 
Speed
knots
Gust
knots
hPa Trend Height
m
Period
s
Dir
18/12:30pm 30.0 ESE 9 13 1010.4 - 0.0 - Partly cloudy 10 - - - -
18/12:00pm 29.8 E 9 14 1010.5 - 0.0 - Partly cloudy 10 - - - -
18/11:30am 29.6 E 9 13 1010.9 - 0.0 - Partly cloudy 10 - - - -
18/11:00am 29.4 E 10 16 1011.1 - 0.0 - Partly cloudy 10 - - - -
18/10:30am 28.8 E 12 17 1011.6 - 0.0 - Partly cloudy 10 - - - -
18/10:00am 28.1 E 11 15 1011.7 - 0.0 - Partly cloudy 10 - - - -
18/09:30am 27.8 E 12 17 1011.5 - 0.0 - - 10 - - - -
18/09:00am 27.6 ESE 10 14 1011.4 F 0.0 Haze Mostly cloudy 20 - - - -
18/08:30am 26.8 ESE 8 11 1011.4 - 0.0 - - 10 - - - -
18/08:00am 25.7 SE 4 6 1011.3 - 0.0 - - 10 - - - -
18/07:30am 24.9 ESE 3 4 1011.2 - 0.0 - - 10 - - - -
18/07:00am 23.9 SE 3 4 1011.0 - 0.0 - - 10 - - - -
18/06:30am 23.7 ESE 3 3 1010.7 - 0.0 - - 10 - - - -
18/06:00am 24.1 E 1 2 1010.5 R 0.0 Fine Mostly clear 30 - - - -
18/05:30am 24.4 E 1 3 1010.5 - 0.0 - - 10 - - - -
18/05:00am 24.5 SSE 1 3 1010.3 - 0.0 - Partly cloudy 10 - - - -
18/04:30am 24.7 ESE 2 3 1010.2 - 0.0 - Partly cloudy 10 - - - -
18/04:00am 24.7 SSE 2 3 1010.2 - 0.0 - Partly cloudy 10 - - - -
18/03:30am 24.4 SE 2 3 1010.0 - 0.0 - Partly cloudy 10 - - - -
18/03:00am 24.3 SE 2 3 1009.8 - 0.0 - - 10 - - - -
18/02:30am 24.5 SE 4 6 1009.9 - 0.0 - Partly cloudy 10 - - - -
18/02:00am 24.6 SE 5 6 1010.0 - 0.0 - - 10 - - - -
18/01:30am 24.8 ESE 6 8 1010.1 - 0.0 - - 10 - - - -
18/01:00am 24.8 ESE 6 9 1010.0 - 0.0 - - 10 - - - -
18/12:30am 25.0 ESE 7 10 1010.4 - 0.0 - - 10 - - - -
18/12:00am 25.2 ESE 7 10 1010.7 - 0.0 - - 10 - - - -
 
Date/Time
EST
Temp

°C
Wind Pressure Rain
since 9am
mm
Weather Cloud Vis
km
Sea
Height
m
Swell
Dir
 
Speed
knots
Gust
knots
hPa Trend Height
m
Period
s
Dir
17/11:30pm 25.2 ESE 7 9 1011.2 - 0.0 - - 10 - - - -
17/11:00pm 25.3 ESE 6 8 1011.4 - 0.0 - - 10 - - - -
17/10:30pm 25.6 E 6 9 1011.6 - 0.0 - - 10 - - - -
17/10:00pm 25.9 E 6 8 1011.5 - 0.0 - - 10 - - - -
17/09:30pm 26.2 ESE 8 12 1011.3 - 0.0 - - 10 - - - -
17/09:00pm 26.5 ESE 9 12 1011.1 - 0.0 - - 10 - - - -
17/08:30pm 26.6 ESE 8 11 1011.2 - 0.0 - - 10 - - - -
17/08:00pm 26.9 ESE 9 12 1010.8 - 0.0 - - 10 - - - -
17/07:30pm 27.1 ESE 8 10 1010.3 - 0.0 - - 10 - - - -
17/07:00pm 27.6 ESE 11 17 1009.9 - 0.0 - Partly cloudy 10 - - - -
17/06:30pm 28.5 E 6 7 1009.7 - 0.0 - Partly cloudy 10 - - - -
17/06:00pm 29.1 E 9 14 1009.0 - 0.0 - Cloudy 10 - - - -
17/05:30pm 29.5 ESE 11 16 1008.7 - 0.0 - Partly cloudy 10 - - - -
17/05:00pm 31.2 ESE 9 13 1008.6 - 0.0 - Partly cloudy 10 - - - -
17/04:30pm 30.9 ESE 10 13 1008.6 - 0.0 - - 10 - - - -
17/04:00pm 31.6 ESE 9 14 1008.5 - 0.0 - Partly cloudy 10 - - - -
17/03:30pm 31.6 ESE 9 16 1008.4 - 0.0 - Partly cloudy 10 - - - -
17/03:00pm 31.4 ESE 8 12 1008.4 F 0.0 Distant precip. Mostly cloudy 35 - - - -
17/02:30pm 31.8 E 9 14 1009.0 - 0.0 - - 10 - - - -
17/02:00pm 31.3 E 9 15 1009.2 - 0.0 - Partly cloudy 10 - - - -
17/01:30pm 31.4 E 10 15 1009.8 - 0.0 - Partly cloudy 10 - - - -
17/01:00pm 30.6 E 10 14 1010.2 - 0.0 - Partly cloudy 10 - - - -
17/12:30pm 31.0 E 9 14 1010.6 - 0.0 - Partly cloudy 10 - - - -
17/12:00pm 29.4 E 9 15 1010.9 S 0.0 Fine Mostly cloudy 35 - - - -
17/11:30am 28.6 ESE 9 14 1011.6 - 0.0 - Partly cloudy 10 - - - -
17/11:00am 27.8 E 9 13 1012.0 - 0.0 - Partly cloudy 10 - - - -
17/10:30am 27.1 E 8 12 1012.2 - 0.0 - Partly cloudy 10 - - - -
17/10:00am 26.6 ESE 10 14 1012.0 - 0.0 - Mostly clear 10 - - - -
17/09:30am 26.1 SE 7 12 1011.9 - 0.0 - Mostly clear 10 - - - -
17/09:00am 25.7 SE 8 11 1011.3 F 1.6 Rain Mostly cloudy 35 - - - -
17/08:30am 25.1 SSE 6 10 1011.4 - 1.6 - - 10 - - - -
17/08:00am 24.8 SE 8 12 1011.3 - 1.6 - - 10 - - - -
17/07:30am 24.3 SE 6 9 1011.5 - 1.6 - Partly cloudy 10 - - - -
17/07:00am 24.1 ESE 6 8 1011.5 - 1.6 - Mostly clear 10 - - - -
17/06:30am 24.1 ESE 7 10 1011.0 - 1.6 - Partly cloudy 10 - - - -
17/06:00am 24.1 ESE 6 7 1010.4 R 1.6 Distant precip. Mostly cloudy 30 - - - -
17/05:30am 24.2 ESE 4 6 1010.3 - 1.6 - Partly cloudy 10 - - - -
17/05:00am 24.2 ESE 4 7 1010.1 - 1.6 - Partly cloudy 10 - - - -
17/04:30am 24.2 ESE 7 9 1009.8 - 1.6 - Partly cloudy 10 - - - -
17/04:00am 24.2 SE 6 8 1009.6 - 1.6 - Partly cloudy 10 - - - -
17/03:30am 24.2 SE 7 11 1009.6 - 1.6 - - 10 - - - -
17/03:00am 24.1 SE 6 9 1009.6 - 1.6 - - 10 - - - -
17/02:30am 24.2 SE 6 9 1010.1 - 1.6 - - 10 - - - -
17/02:00am 24.2 ESE 4 5 1010.3 - 1.6 - - 10 - - - -
17/01:30am 24.5 ESE 6 7 1010.6 - 1.6 - - 10 - - - -
17/01:00am 24.6 SE 5 8 1010.9 - 1.6 - - 10 - - - -
17/12:30am 24.9 ESE 6 8 1010.9 - 1.6 - - 10 - - - -
17/12:00am 25.0 ESE 7 10 1010.9 - 1.6 - - 10 - - - -
 
Date/Time
EST
Temp

°C
Wind Pressure Rain
since 9am
mm
Weather Cloud Vis
km
Sea
Height
m
Swell
Dir
 
Speed
knots
Gust
knots
hPa Trend Height
m
Period
s
Dir
16/11:30pm 25.1 ESE 7 10 1011.2 - 1.6 - - 10 - - - -
16/11:00pm 25.0 SE 4 7 1011.5 - 1.6 - Partly cloudy 10 - - - -
16/10:30pm 24.9 SE 4 6 1011.5 - 1.6 - Partly cloudy 10 - - - -
16/10:00pm 25.0 SSE 4 6 1011.4 - 1.6 - Partly cloudy 10 - - - -
16/09:30pm 25.1 SSE 3 6 1011.0 - 1.6 - - 10 - - - -
16/09:00pm 25.3 SE 6 9 1010.7 - 1.6 - Partly cloudy 10 - - - -
16/08:30pm 25.2 SE 4 6 1010.5 - 1.6 - - 10 - - - -
16/08:00pm 25.4 E 5 9 1010.1 - 1.6 - Partly cloudy 10 - - - -
16/07:30pm 25.8 SSE 5 9 1010.0 - 1.6 - Partly cloudy 10 - - - -
16/07:00pm 26.4 S 3 5 1009.5 - 1.6 - Partly cloudy 10 - - - -
16/06:30pm 26.7 S 3 6 1009.0 - 1.6 - Partly cloudy 10 - - - -
16/06:12pm 26.9 SE 3 5 1008.8 - 1.6 - Partly cloudy 10 - - - -
16/06:00pm 27.2 SSE 4 7 1008.2 - 1.6 - Cloudy 3 - - - -
16/05:53pm 27.7 SSE 3 6 1008.4 - 1.4 - Partly cloudy 3 - - - -
16/05:30pm 29.4 SE 2 6 1008.4 - 0.0 - Partly cloudy 10 - - - -
16/05:00pm 29.7 ESE 3 5 1007.5 - 0.0 - Partly cloudy 10 - - - -
16/04:30pm 28.5 N 2 3 1007.4 - 0.0 - Partly cloudy 10 - - - -
16/04:00pm 28.4 NE 5 9 1007.4 - 0.0 - Partly cloudy 10 - - - -
16/03:30pm 30.8 ENE 7 10 1007.1 - 0.0 - Partly cloudy 10 - - - -
16/03:00pm 31.7 NNE 7 11 1007.0 F 0.0 Distant precip. Mostly cloudy 15 - - - -
16/02:30pm 31.9 E 8 12 1007.8 - 0.0 - - 10 - - - -
16/02:00pm 31.3 E 7 13 1008.2 - 0.0 - Partly cloudy 10 - - - -
16/01:30pm 31.8 E 7 13 1008.6 - 0.0 - Partly cloudy 10 - - - -
16/01:00pm 31.0 E 8 13 1008.9 - 0.0 - Partly cloudy 10 - - - -
16/12:30pm 31.1 E 9 15 1009.5 - 0.0 - Partly cloudy 10 - - - -
16/12:00pm 30.3 E 10 16 1010.0 F 0.0 Fine Mostly cloudy 35 - - - -
16/11:30am 30.2 E 11 16 1010.5 - 0.0 - Partly cloudy 10 - - - -
16/11:00am 30.0 E 10 15 1011.0 - 0.0 - Partly cloudy 10 - - - -
16/10:30am 29.5 E 11 17 1011.2 - 0.0 - - 10 - - - -
16/10:00am 29.0 E 11 15 1011.3 - 0.0 - Mostly clear 10 - - - -
16/09:30am 28.5 E 9 13 1011.2 - 0.0 - - 10 - - - -
16/09:00am 27.7 E 9 14 1010.9 - 12.0 - - 10 - - - -
16/08:30am 26.8 E 7 10 1010.8 - 11.8 - - 10 - - - -
16/08:00am 25.9 ESE 5 7 1010.5 - 11.8 - Mostly clear 10 - - - -
16/07:30am 24.8 ESE 5 8 1010.3 - 11.8 - - 10 - - - -
16/07:00am 24.0 SE 3 4 1010.1 - 11.8 - Mostly clear 10 - - - -
16/06:30am 24.0 ESE 3 5 1010.0 - 11.8 - Mostly clear 10 - - - -
16/06:00am 24.0 E 3 4 1009.5 F 11.8 Fine Mostly cloudy 25 - - - -
16/05:30am 24.0 E 3 5 1009.8 - - - - 10 - - - -
16/05:00am 24.0 SE 3 4 1009.6 - - - - 10 - - - -
16/04:30am 24.0 ESE 1 2 1009.8 - - - - 10 - - - -
16/04:00am 24.1 ESE 2 2 1009.9 - - - - 10 - - - -
16/03:30am 24.2 SE 4 6 1009.5 - - - - 10 - - - -
16/03:00am 24.0 SE 3 3 1009.6 - - - - 10 - - - -
16/02:30am 24.0 CALM 0 1 1010.2 - - - - 10 - - - -
16/02:00am 24.1 E 2 2 1010.3 - - - - 10 - - - -
16/01:30am 24.1 ESE 2 3 1010.4 - - - - 10 - - - -
16/01:00am 24.1 ESE 1 2 1010.7 - - - - 10 - - - -
16/12:30am 24.2 ESE 3 4 1011.0 - - - - 10 - - - -
16/12:00am 24.3 ESE 3 4 1011.1 - - - - 10 - - - -
 
Date/Time
EST
Temp

°C
Wind Pressure Rain
since 9am
mm
Weather Cloud Vis
km
Sea
Height
m
Swell
Dir
 
Speed
knots
Gust
knots
hPa Trend Height
m
Period
s
Dir
15/11:30pm 24.3 ESE 3 4 1011.4 - - - - 10 - - - -
15/11:00pm 24.5 SE 2 3 1011.4 - - - - 10 - - - -
15/10:30pm 24.6 E 3 5 1011.4 - - - - 10 - - - -
15/10:00pm 24.7 E 3 4 1011.3 - - - - 10 - - - -
15/09:30pm 24.9 E 2 3 1011.3 - - - Partly cloudy 10 - - - -
15/09:00pm 24.9 E 2 3 1010.9 - - - Mostly clear 10 - - - -
15/08:30pm 25.1 SE 3 4 1010.8 - - - Partly cloudy 10 - - - -
15/08:00pm 25.1 SSE 4 5 1010.2 - - - - 10 - - - -
15/07:30pm 25.3 SE 3 6 1009.6 - - - Partly cloudy 10 - - - -
15/07:00pm 25.3 ESE 4 5 1009.3 - - - Partly cloudy 10 - - - -
15/06:30pm 25.6 SE 4 6 1009.4 - - - Partly cloudy 10 - - - -
15/06:00pm 26.0 SSE 3 4 1008.8 - - - Mostly clear 10 - - - -
15/05:30pm 26.3 S 2 4 1008.8 - - - Partly cloudy 10 - - - -
15/05:00pm 26.3 E 4 6 1008.9 - - - Partly cloudy 10 - - - -
15/04:30pm 25.7 NW 4 6 1008.3 - - - Partly cloudy 10 - - - -
15/04:09pm 25.4 NW 5 9 1007.9 - - - Partly cloudy 5 - - - -
15/04:00pm 25.4 W 5 10 1008.0 - - - Partly cloudy 0.9 - - - -
15/03:56pm 25.5 W 6 10 1008.1 - - - Partly cloudy 0.6 - - - -
15/03:42pm 26.0 N 9 11 1007.9 - - - Partly cloudy 5 - - - -
15/03:30pm 28.2 N 10 13 1007.9 - - - Partly cloudy 10 - - - -
15/03:00pm 31.0 NNW 2 5 1007.7 F 0.0 Thunder Mostly cloudy 15 - - - -
15/02:30pm 31.1 SW 1 4 1008.1 - 0.0 - Partly cloudy 10 - - - -
15/02:04pm 30.9 SW 4 6 1008.5 - 0.0 - Partly cloudy 10 - - - -
15/01:30pm 30.9 SSE 2 4 1009.0 - 0.0 - Partly cloudy 10 - - - -
15/01:00pm 31.4 NE 2 5 1009.5 - 0.0 - Partly cloudy 10 - - - -

Other Formats:

Comma delimited format used in spreadsheet applications
http://www.bom.gov.au/fwo/IDQ60701/IDQ60701.94170.axf

JavaScript Object Notation format (JSON) in row-major order
http://www.bom.gov.au/fwo/IDQ60701/IDQ60701.94170.json